Denbigh, Canada
Current Conditions -  °F | °C
As of 4:23 AM on Monday 24 Nov 2014 (Local Time) from CYWA Reporting Station
Overcast Overcast  
Wind Chill: 36°   Ceiling: 1700
Heat Index: 43°   Visibility: 3mi
Dew Point: 37°   Wind: 13mph
Humidity: 81%   Direction: 130°SE
Pressure: 29.42"   Gusts: NA
Location:  45.15°N, 77.25°W
Report Text: CYWA 240923Z AUTO 13011KT 3SM FEW009 OVC017 OVC033 06/03 A2942
Loading
Personal Weather Stations






























Interactive Weather Map New forecast layout! Learn more

10-Day Weather Forecast

Advertisements
Track Severe Weather on mobile